sensor_id;sensor_type;location;lat;lon;timestamp;pressure;altitude;pressure_sealevel;temperature;humidity
10668;BME280;5382;42.136;24.796;2023-11-19T00:00:30;99659.34;;;7.26;100.00
10668;BME280;5382;42.136;24.796;2023-11-19T00:02:57;99654.91;;;7.27;100.00
10668;BME280;5382;42.136;24.796;2023-11-19T00:05:24;99655.13;;;7.24;100.00
10668;BME280;5382;42.136;24.796;2023-11-19T00:07:52;99673.63;;;7.22;100.00
10668;BME280;5382;42.136;24.796;2023-11-19T00:10:19;99686.78;;;7.22;100.00
10668;BME280;5382;42.136;24.796;2023-11-19T00:12:47;99667.31;;;7.25;100.00
10668;BME280;5382;42.136;24.796;2023-11-19T00:15:14;99714.69;;;7.10;100.00
10668;BME280;5382;42.136;24.796;2023-11-19T00:17:42;99671.19;;;7.19;100.00
10668;BME280;5382;42.136;24.796;2023-11-19T00:20:11;99653.03;;;7.14;100.00
10668;BME280;5382;42.136;24.796;2023-11-19T00:22:38;99651.81;;;7.20;100.00
10668;BME280;5382;42.136;24.796;2023-11-19T00:25:08;99676.44;;;7.19;100.00
10668;BME280;5382;42.136;24.796;2023-11-19T00:27:34;99672.97;;;7.18;100.00
10668;BME280;5382;42.136;24.796;2023-11-19T00:30:03;99688.84;;;7.17;100.00
10668;BME280;5382;42.136;24.796;2023-11-19T00:32:31;99695.91;;;7.16;100.00
10668;BME280;5382;42.136;24.796;2023-11-19T00:34:58;99646.47;;;6.93;100.00
10668;BME280;5382;42.136;24.796;2023-11-19T00:37:24;99685.38;;;7.16;100.00
10668;BME280;5382;42.136;24.796;2023-11-19T00:39:51;99669.88;;;6.97;100.00
10668;BME280;5382;42.136;24.796;2023-11-19T00:42:20;99705.31;;;7.20;100.00
10668;BME280;5382;42.136;24.796;2023-11-19T00:44:47;99693.06;;;7.19;100.00
10668;BME280;5382;42.136;24.796;2023-11-19T00:47:14;99709.53;;;7.23;100.00
10668;BME280;5382;42.136;24.796;2023-11-19T00:49:41;99705.13;;;7.24;100.00
10668;BME280;5382;42.136;24.796;2023-11-19T00:52:08;99710.38;;;7.24;100.00
10668;BME280;5382;42.136;24.796;2023-11-19T00:54:35;99705.88;;;7.26;100.00
10668;BME280;5382;42.136;24.796;2023-11-19T00:57:02;99715.63;;;7.24;100.00
10668;BME280;5382;42.136;24.796;2023-11-19T00:59:31;99716.56;;;7.22;100.00
10668;BME280;5382;42.136;24.796;2023-11-19T01:01:58;99712.25;;;7.21;100.00
10668;BME280;5382;42.136;24.796;2023-11-19T01:04:28;99696.66;;;7.18;100.00
10668;BME280;5382;42.136;24.796;2023-11-19T01:06:55;99691.19;;;7.21;100.00
10668;BME280;5382;42.136;24.796;2023-11-19T01:09:22;99707.06;;;7.20;100.00
10668;BME280;5382;42.136;24.796;2023-11-19T01:11:49;99703.78;;;7.16;100.00
10668;BME280;5382;42.136;24.796;2023-11-19T01:14:16;99694.94;;;7.17;100.00
10668;BME280;5382;42.136;24.796;2023-11-19T01:16:45;99713.47;;;7.16;100.00
10668;BME280;5382;42.136;24.796;2023-11-19T01:19:12;99724.66;;;7.19;100.00
10668;BME280;5382;42.136;24.796;2023-11-19T01:21:38;99723.16;;;7.15;100.00
10668;BME280;5382;42.136;24.796;2023-11-19T01:24:06;99716.28;;;7.13;100.00
10668;BME280;5382;42.136;24.796;2023-11-19T01:26:35;99743.63;;;7.10;100.00
10668;BME280;5382;42.136;24.796;2023-11-19T01:29:01;99711.94;;;7.12;100.00
10668;BME280;5382;42.136;24.796;2023-11-19T01:31:30;99742.59;;;7.13;100.00
10668;BME280;5382;42.136;24.796;2023-11-19T01:33:58;99711.03;;;7.13;100.00
10668;BME280;5382;42.136;24.796;2023-11-19T01:36:25;99710.09;;;7.14;100.00
10668;BME280;5382;42.136;24.796;2023-11-19T01:38:52;99701.34;;;7.13;100.00
10668;BME280;5382;42.136;24.796;2023-11-19T01:41:19;99705.00;;;7.11;100.00
10668;BME280;5382;42.136;24.796;2023-11-19T01:43:45;99736.47;;;7.12;100.00
10668;BME280;5382;42.136;24.796;2023-11-19T01:46:12;99717.13;;;7.13;100.00
10668;BME280;5382;42.136;24.796;2023-11-19T01:48:42;99692.69;;;7.11;100.00
10668;BME280;5382;42.136;24.796;2023-11-19T01:51:13;99715.53;;;7.11;100.00
10668;BME280;5382;42.136;24.796;2023-11-19T01:53:43;99685.75;;;7.10;100.00
10668;BME280;5382;42.136;24.796;2023-11-19T01:56:13;99683.66;;;7.01;100.00
10668;BME280;5382;42.136;24.796;2023-11-19T01:58:41;99696.81;;;7.01;100.00
10668;BME280;5382;42.136;24.796;2023-11-19T02:01:09;99730.56;;;7.09;100.00
10668;BME280;5382;42.136;24.796;2023-11-19T02:03:37;99750.38;;;7.14;100.00
10668;BME280;5382;42.136;24.796;2023-11-19T02:06:05;99738.25;;;7.12;100.00
10668;BME280;5382;42.136;24.796;2023-11-19T02:08:34;99725.03;;;7.13;100.00
10668;BME280;5382;42.136;24.796;2023-11-19T02:11:01;99732.09;;;7.13;100.00
10668;BME280;5382;42.136;24.796;2023-11-19T02:13:28;99716.38;;;7.11;100.00
10668;BME280;5382;42.136;24.796;2023-11-19T02:15:55;99719.28;;;7.07;100.00
10668;BME280;5382;42.136;24.796;2023-11-19T02:18:23;99740.31;;;7.07;100.00
10668;BME280;5382;42.136;24.796;2023-11-19T02:20:53;99742.88;;;7.08;100.00
10668;BME280;5382;42.136;24.796;2023-11-19T02:23:20;99694.00;;;7.04;100.00
10668;BME280;5382;42.136;24.796;2023-11-19T02:26:05;99729.81;;;7.07;100.00
10668;BME280;5382;42.136;24.796;2023-11-19T02:28:37;99724.47;;;7.08;100.00
10668;BME280;5382;42.136;24.796;2023-11-19T02:31:04;99732.63;;;7.04;100.00
10668;BME280;5382;42.136;24.796;2023-11-19T02:33:35;99747.19;;;7.09;100.00
10668;BME280;5382;42.136;24.796;2023-11-19T02:36:02;99746.28;;;7.10;100.00
10668;BME280;5382;42.136;24.796;2023-11-19T02:38:29;99737.63;;;7.08;100.00
10668;BME280;5382;42.136;24.796;2023-11-19T02:40:56;99744.66;;;7.08;100.00
10668;BME280;5382;42.136;24.796;2023-11-19T02:43:23;99735.75;;;7.10;100.00
10668;BME280;5382;42.136;24.796;2023-11-19T02:45:51;99733.13;;;7.10;100.00
10668;BME280;5382;42.136;24.796;2023-11-19T02:48:21;99748.03;;;7.10;100.00
10668;BME280;5382;42.136;24.796;2023-11-19T02:50:47;99736.59;;;7.11;100.00
10668;BME280;5382;42.136;24.796;2023-11-19T02:53:14;99779.34;;;7.14;100.00
10668;BME280;5382;42.136;24.796;2023-11-19T02:55:41;99750.38;;;7.14;100.00
10668;BME280;5382;42.136;24.796;2023-11-19T02:58:14;99736.41;;;7.14;100.00
10668;BME280;5382;42.136;24.796;2023-11-19T03:00:49;99740.06;;;7.11;100.00
10668;BME280;5382;42.136;24.796;2023-11-19T03:03:24;99732.34;;;7.08;100.00
10668;BME280;5382;42.136;24.796;2023-11-19T03:05:56;99710.47;;;7.08;100.00
10668;BME280;5382;42.136;24.796;2023-11-19T03:08:23;99743.53;;;7.12;100.00
10668;BME280;5382;42.136;24.796;2023-11-19T03:10:50;99726.81;;;7.13;100.00
10668;BME280;5382;42.136;24.796;2023-11-19T03:13:17;99706.69;;;7.12;100.00
10668;BME280;5382;42.136;24.796;2023-11-19T03:15:43;99701.91;;;7.04;100.00
10668;BME280;5382;42.136;24.796;2023-11-19T03:18:11;99700.78;;;7.08;100.00
10668;BME280;5382;42.136;24.796;2023-11-19T03:20:39;99687.72;;;7.07;100.00
10668;BME280;5382;42.136;24.796;2023-11-19T03:23:06;99720.13;;;7.07;100.00
10668;BME280;5382;42.136;24.796;2023-11-19T03:25:33;99734.16;;;7.08;100.00
10668;BME280;5382;42.136;24.796;2023-11-19T03:28:02;99761.47;;;7.05;100.00
10668;BME280;5382;42.136;24.796;2023-11-19T03:30:29;99729.91;;;7.05;100.00
10668;BME280;5382;42.136;24.796;2023-11-19T03:32:56;99731.03;;;7.01;100.00
10668;BME280;5382;42.136;24.796;2023-11-19T03:35:24;99706.97;;;6.93;100.00
10668;BME280;5382;42.136;24.796;2023-11-19T03:37:52;99717.00;;;6.86;100.00
10668;BME280;5382;42.136;24.796;2023-11-19T03:40:19;99757.56;;;6.82;100.00
10668;BME280;5382;42.136;24.796;2023-11-19T03:42:46;99741.13;;;6.78;100.00
10668;BME280;5382;42.136;24.796;2023-11-19T03:45:13;99734.34;;;6.74;100.00
10668;BME280;5382;42.136;24.796;2023-11-19T03:47:41;99737.56;;;6.80;100.00
10668;BME280;5382;42.136;24.796;2023-11-19T03:50:08;99741.88;;;6.81;100.00
10668;BME280;5382;42.136;24.796;2023-11-19T03:52:35;99725.91;;;6.69;100.00
10668;BME280;5382;42.136;24.796;2023-11-19T03:55:04;99742.81;;;6.80;100.00
10668;BME280;5382;42.136;24.796;2023-11-19T03:57:32;99740.47;;;6.75;100.00
10668;BME280;5382;42.136;24.796;2023-11-19T03:59:58;99743.00;;;6.76;100.00
10668;BME280;5382;42.136;24.796;2023-11-19T04:02:27;99762.34;;;6.75;100.00
10668;BME280;5382;42.136;24.796;2023-11-19T04:04:54;99752.31;;;6.82;100.00
10668;BME280;5382;42.136;24.796;2023-11-19T04:07:21;99790.91;;;6.82;100.00
10668;BME280;5382;42.136;24.796;2023-11-19T04:09:47;99784.72;;;6.83;100.00
10668;BME280;5382;42.136;24.796;2023-11-19T04:12:15;99783.75;;;6.84;100.00
10668;BME280;5382;42.136;24.796;2023-11-19T04:14:42;99785.47;;;6.85;100.00
10668;BME280;5382;42.136;24.796;2023-11-19T04:17:09;99763.31;;;6.89;100.00
10668;BME280;5382;42.136;24.796;2023-11-19T04:19:36;99760.03;;;6.85;100.00
10668;BME280;5382;42.136;24.796;2023-11-19T04:22:07;99760.78;;;6.87;100.00
10668;BME280;5382;42.136;24.796;2023-11-19T04:24:34;99768.75;;;6.86;100.00
10668;BME280;5382;42.136;24.796;2023-11-19T04:27:01;99771.13;;;6.90;100.00
10668;BME280;5382;42.136;24.796;2023-11-19T04:29:30;99765.84;;;6.90;100.00
10668;BME280;5382;42.136;24.796;2023-11-19T04:31:57;99774.69;;;6.89;100.00
10668;BME280;5382;42.136;24.796;2023-11-19T04:34:26;99803.25;;;6.95;100.00
10668;BME280;5382;42.136;24.796;2023-11-19T04:36:53;99779.78;;;6.92;100.00
10668;BME280;5382;42.136;24.796;2023-11-19T04:39:20;99779.09;;;6.89;100.00
10668;BME280;5382;42.136;24.796;2023-11-19T04:41:48;99757.75;;;6.79;100.00
10668;BME280;5382;42.136;24.796;2023-11-19T04:44:14;99787.53;;;6.80;100.00
10668;BME280;5382;42.136;24.796;2023-11-19T04:46:43;99789.41;;;6.77;100.00
10668;BME280;5382;42.136;24.796;2023-11-19T04:49:11;99785.84;;;6.63;100.00
10668;BME280;5382;42.136;24.796;2023-11-19T04:51:39;99789.88;;;6.54;100.00
10668;BME280;5382;42.136;24.796;2023-11-19T04:54:07;99812.75;;;6.52;100.00
10668;BME280;5382;42.136;24.796;2023-11-19T04:56:36;99800.56;;;6.51;100.00
10668;BME280;5382;42.136;24.796;2023-11-19T04:59:03;99787.50;;;6.49;100.00
10668;BME280;5382;42.136;24.796;2023-11-19T05:01:31;99800.66;;;6.33;100.00
10668;BME280;5382;42.136;24.796;2023-11-19T05:04:00;99761.84;;;6.39;100.00
10668;BME280;5382;42.136;24.796;2023-11-19T05:06:27;99776.84;;;6.37;100.00
10668;BME280;5382;42.136;24.796;2023-11-19T05:08:55;99784.13;;;6.31;100.00
10668;BME280;5382;42.136;24.796;2023-11-19T05:11:22;99770.22;;;6.29;100.00
10668;BME280;5382;42.136;24.796;2023-11-19T05:13:49;99791.25;;;6.29;100.00
10668;BME280;5382;42.136;24.796;2023-11-19T05:16:16;99820.16;;;6.29;100.00
10668;BME280;5382;42.136;24.796;2023-11-19T05:18:43;99845.50;;;6.30;100.00
10668;BME280;5382;42.136;24.796;2023-11-19T05:21:11;99800.59;;;6.35;100.00
10668;BME280;5382;42.136;24.796;2023-11-19T05:23:38;99804.22;;;6.32;100.00
10668;BME280;5382;42.136;24.796;2023-11-19T05:26:07;99804.22;;;6.32;100.00
10668;BME280;5382;42.136;24.796;2023-11-19T05:28:37;99856.94;;;6.29;100.00
10668;BME280;5382;42.136;24.796;2023-11-19T05:31:05;99801.94;;;6.26;100.00
10668;BME280;5382;42.136;24.796;2023-11-19T05:33:32;99806.41;;;6.24;100.00
10668;BME280;5382;42.136;24.796;2023-11-19T05:35:59;99792.44;;;6.24;100.00
10668;BME280;5382;42.136;24.796;2023-11-19T05:38:30;99788.19;;;6.21;100.00
10668;BME280;5382;42.136;24.796;2023-11-19T05:40:57;99804.72;;;6.23;100.00
10668;BME280;5382;42.136;24.796;2023-11-19T05:43:23;99811.78;;;6.23;100.00
10668;BME280;5382;42.136;24.796;2023-11-19T05:45:50;99829.47;;;6.19;100.00
10668;BME280;5382;42.136;24.796;2023-11-19T05:48:17;99834.91;;;6.16;100.00
10668;BME280;5382;42.136;24.796;2023-11-19T05:50:44;99834.13;;;6.14;100.00
10668;BME280;5382;42.136;24.796;2023-11-19T05:53:12;99811.44;;;6.13;100.00
10668;BME280;5382;42.136;24.796;2023-11-19T05:55:41;99805.16;;;6.16;100.00
10668;BME280;5382;42.136;24.796;2023-11-19T05:58:14;99809.22;;;6.21;100.00
10668;BME280;5382;42.136;24.796;2023-11-19T06:00:42;99809.03;;;6.24;100.00
10668;BME280;5382;42.136;24.796;2023-11-19T06:03:08;99791.53;;;6.25;100.00
10668;BME280;5382;42.136;24.796;2023-11-19T06:05:35;99802.63;;;6.30;100.00
10668;BME280;5382;42.136;24.796;2023-11-19T06:08:02;99820.75;;;6.34;100.00
10668;BME280;5382;42.136;24.796;2023-11-19T06:10:29;99849.50;;;6.38;100.00
10668;BME280;5382;42.136;24.796;2023-11-19T06:12:59;99798.63;;;6.39;100.00
10668;BME280;5382;42.136;24.796;2023-11-19T06:15:26;99838.22;;;6.36;100.00
10668;BME280;5382;42.136;24.796;2023-11-19T06:17:53;99814.03;;;6.45;100.00
10668;BME280;5382;42.136;24.796;2023-11-19T06:20:20;99818.97;;;6.51;100.00
10668;BME280;5382;42.136;24.796;2023-11-19T06:22:47;99836.16;;;6.57;100.00
10668;BME280;5382;42.136;24.796;2023-11-19T06:25:15;99833.28;;;6.45;100.00
10668;BME280;5382;42.136;24.796;2023-11-19T06:27:42;99864.06;;;6.59;100.00
10668;BME280;5382;42.136;24.796;2023-11-19T06:30:11;99839.28;;;6.63;100.00
10668;BME280;5382;42.136;24.796;2023-11-19T06:32:38;99842.59;;;6.67;100.00
10668;BME280;5382;42.136;24.796;2023-11-19T06:35:05;99851.25;;;6.69;100.00
10668;BME280;5382;42.136;24.796;2023-11-19T06:37:33;99863.38;;;6.71;100.00
10668;BME280;5382;42.136;24.796;2023-11-19T06:40:00;99857.94;;;6.74;100.00
10668;BME280;5382;42.136;24.796;2023-11-19T06:42:27;99905.09;;;6.77;100.00
10668;BME280;5382;42.136;24.796;2023-11-19T06:44:54;99863.44;;;6.86;100.00
10668;BME280;5382;42.136;24.796;2023-11-19T06:47:25;99864.00;;;6.91;100.00
10668;BME280;5382;42.136;24.796;2023-11-19T06:49:52;99870.69;;;6.96;100.00
10668;BME280;5382;42.136;24.796;2023-11-19T06:52:19;99860.88;;;7.00;100.00
10668;BME280;5382;42.136;24.796;2023-11-19T06:54:46;99872.41;;;6.97;100.00
10668;BME280;5382;42.136;24.796;2023-11-19T06:57:13;99858.06;;;7.03;100.00
10668;BME280;5382;42.136;24.796;2023-11-19T06:59:42;99854.22;;;7.09;100.00
10668;BME280;5382;42.136;24.796;2023-11-19T07:02:09;99842.66;;;7.11;100.00
10668;BME280;5382;42.136;24.796;2023-11-19T07:04:37;99870.50;;;7.15;100.00
10668;BME280;5382;42.136;24.796;2023-11-19T07:07:04;99849.16;;;7.20;100.00
10668;BME280;5382;42.136;24.796;2023-11-19T07:09:31;99861.28;;;7.22;100.00
10668;BME280;5382;42.136;24.796;2023-11-19T07:11:59;99860.75;;;7.32;100.00
10668;BME280;5382;42.136;24.796;2023-11-19T07:14:27;99853.25;;;7.40;100.00
10668;BME280;5382;42.136;24.796;2023-11-19T07:16:54;99875.72;;;7.46;100.00
10668;BME280;5382;42.136;24.796;2023-11-19T07:19:21;99866.81;;;7.48;100.00
10668;BME280;5382;42.136;24.796;2023-11-19T07:21:49;99904.81;;;7.58;100.00
10668;BME280;5382;42.136;24.796;2023-11-19T07:24:16;99926.56;;;7.62;100.00
10668;BME280;5382;42.136;24.796;2023-11-19T07:26:43;99925.81;;;7.60;100.00
10668;BME280;5382;42.136;24.796;2023-11-19T07:29:10;99915.56;;;7.70;100.00
10668;BME280;5382;42.136;24.796;2023-11-19T07:31:37;99914.34;;;7.90;100.00
10668;BME280;5382;42.136;24.796;2023-11-19T07:34:04;99891.50;;;8.04;100.00
10668;BME280;5382;42.136;24.796;2023-11-19T07:36:32;99904.47;;;8.07;100.00
10668;BME280;5382;42.136;24.796;2023-11-19T07:39:00;99893.66;;;8.12;100.00
10668;BME280;5382;42.136;24.796;2023-11-19T07:41:27;99919.56;;;8.34;100.00
10668;BME280;5382;42.136;24.796;2023-11-19T07:43:54;99980.47;;;8.29;100.00
10668;BME280;5382;42.136;24.796;2023-11-19T07:46:21;99952.69;;;8.09;100.00
10668;BME280;5382;42.136;24.796;2023-11-19T07:48:48;99969.16;;;8.27;99.98
10668;BME280;5382;42.136;24.796;2023-11-19T07:51:15;99949.19;;;8.23;98.23
10668;BME280;5382;42.136;24.796;2023-11-19T07:53:42;99971.59;;;8.30;97.80
10668;BME280;5382;42.136;24.796;2023-11-19T07:56:11;99977.91;;;8.28;97.61
10668;BME280;5382;42.136;24.796;2023-11-19T07:58:37;99955.59;;;8.19;97.88
10668;BME280;5382;42.136;24.796;2023-11-19T08:01:05;99966.91;;;8.36;98.28
10668;BME280;5382;42.136;24.796;2023-11-19T08:03:32;99968.03;;;8.32;96.58
10668;BME280;5382;42.136;24.796;2023-11-19T08:06:00;99958.91;;;8.23;96.48
10668;BME280;5382;42.136;24.796;2023-11-19T08:08:27;99977.56;;;8.34;96.14
10668;BME280;5382;42.136;24.796;2023-11-19T08:10:55;99981.31;;;8.30;96.39
10668;BME280;5382;42.136;24.796;2023-11-19T08:13:23;99939.13;;;8.16;96.51
10668;BME280;5382;42.136;24.796;2023-11-19T08:15:51;99980.91;;;8.36;96.12
10668;BME280;5382;42.136;24.796;2023-11-19T08:18:18;99970.38;;;8.36;95.38
10668;BME280;5382;42.136;24.796;2023-11-19T08:20:45;99985.81;;;8.28;95.11
10668;BME280;5382;42.136;24.796;2023-11-19T08:23:15;100011.91;;;8.33;95.11
10668;BME280;5382;42.136;24.796;2023-11-19T08:25:42;99993.38;;;8.34;94.91
10668;BME280;5382;42.136;24.796;2023-11-19T08:28:09;99967.09;;;8.33;93.88
10668;BME280;5382;42.136;24.796;2023-11-19T08:30:37;100007.03;;;8.41;92.59
10668;BME280;5382;42.136;24.796;2023-11-19T08:33:04;100013.38;;;8.52;92.96
10668;BME280;5382;42.136;24.796;2023-11-19T08:35:32;99987.34;;;8.46;93.29
10668;BME280;5382;42.136;24.796;2023-11-19T08:37:59;99983.59;;;8.50;92.52
10668;BME280;5382;42.136;24.796;2023-11-19T08:40:27;100011.28;;;8.58;91.03
10668;BME280;5382;42.136;24.796;2023-11-19T08:42:55;99994.44;;;8.46;91.51
10668;BME280;5382;42.136;24.796;2023-11-19T08:45:22;99980.59;;;8.42;92.80
10668;BME280;5382;42.136;24.796;2023-11-19T08:47:50;99981.16;;;8.47;93.42
10668;BME280;5382;42.136;24.796;2023-11-19T08:50:17;99970.34;;;8.52;93.88
10668;BME280;5382;42.136;24.796;2023-11-19T08:52:44;100005.19;;;8.57;92.62
10668;BME280;5382;42.136;24.796;2023-11-19T08:55:11;99965.97;;;8.65;90.87
10668;BME280;5382;42.136;24.796;2023-11-19T08:57:39;100027.41;;;8.67;89.01
10668;BME280;5382;42.136;24.796;2023-11-19T09:00:06;99998.38;;;8.53;90.35
10668;BME280;5382;42.136;24.796;2023-11-19T09:02:34;99968.63;;;8.65;91.15
10668;BME280;5382;42.136;24.796;2023-11-19T09:05:04;99984.25;;;8.54;91.16
10668;BME280;5382;42.136;24.796;2023-11-19T09:07:31;99978.50;;;8.62;90.58
10668;BME280;5382;42.136;24.796;2023-11-19T09:09:58;100001.88;;;8.54;88.76
10668;BME280;5382;42.136;24.796;2023-11-19T09:12:25;99996.59;;;8.68;87.73
10668;BME280;5382;42.136;24.796;2023-11-19T09:14:52;100026.25;;;8.71;86.83
10668;BME280;5382;42.136;24.796;2023-11-19T09:17:19;99936.53;;;8.86;86.24
10668;BME280;5382;42.136;24.796;2023-11-19T09:19:46;100017.19;;;8.90;88.20
10668;BME280;5382;42.136;24.796;2023-11-19T09:22:14;99985.53;;;8.90;85.81
10668;BME280;5382;42.136;24.796;2023-11-19T09:24:41;100036.50;;;8.90;84.74
10668;BME280;5382;42.136;24.796;2023-11-19T09:27:09;100000.09;;;8.95;85.29
10668;BME280;5382;42.136;24.796;2023-11-19T09:29:37;100032.34;;;9.01;84.36
10668;BME280;5382;42.136;24.796;2023-11-19T09:32:04;100000.56;;;9.16;84.15
10668;BME280;5382;42.136;24.796;2023-11-19T09:34:31;100033.63;;;9.22;82.74
10668;BME280;5382;42.136;24.796;2023-11-19T09:36:58;100027.03;;;9.15;81.68
10668;BME280;5382;42.136;24.796;2023-11-19T09:39:27;99969.13;;;8.99;81.11
10668;BME280;5382;42.136;24.796;2023-11-19T09:41:54;99981.69;;;9.08;81.18
10668;BME280;5382;42.136;24.796;2023-11-19T09:44:21;99991.34;;;9.09;80.10
10668;BME280;5382;42.136;24.796;2023-11-19T09:46:48;99943.69;;;9.11;81.67
10668;BME280;5382;42.136;24.796;2023-11-19T09:51:44;99963.22;;;9.35;83.27
10668;BME280;5382;42.136;24.796;2023-11-19T09:54:11;99983.47;;;9.22;78.53
10668;BME280;5382;42.136;24.796;2023-11-19T09:56:41;99994.78;;;9.24;80.49
10668;BME280;5382;42.136;24.796;2023-11-19T09:59:08;100009.72;;;9.38;78.49
10668;BME280;5382;42.136;24.796;2023-11-19T10:01:37;100002.56;;;9.40;77.18
10668;BME280;5382;42.136;24.796;2023-11-19T10:04:05;100010.00;;;9.33;77.21
10668;BME280;5382;42.136;24.796;2023-11-19T10:06:33;100007.59;;;9.16;79.09
10668;BME280;5382;42.136;24.796;2023-11-19T10:09:00;100004.09;;;9.30;82.10
10668;BME280;5382;42.136;24.796;2023-11-19T10:11:27;100025.53;;;9.11;86.34
10668;BME280;5382;42.136;24.796;2023-11-19T10:13:55;99998.75;;;9.17;83.85
10668;BME280;5382;42.136;24.796;2023-11-19T10:16:28;99991.75;;;9.16;84.33
10668;BME280;5382;42.136;24.796;2023-11-19T10:18:55;99937.16;;;9.44;90.71
10668;BME280;5382;42.136;24.796;2023-11-19T10:21:22;99968.78;;;9.58;82.95
10668;BME280;5382;42.136;24.796;2023-11-19T10:23:50;99957.53;;;9.42;85.05
10668;BME280;5382;42.136;24.796;2023-11-19T10:26:18;99955.59;;;9.58;100.00
10668;BME280;5382;42.136;24.796;2023-11-19T10:28:46;99962.34;;;10.28;98.30
10668;BME280;5382;42.136;24.796;2023-11-19T10:31:15;99956.38;;;10.50;79.99
10668;BME280;5382;42.136;24.796;2023-11-19T10:36:12;99928.22;;;10.85;74.36
10668;BME280;5382;42.136;24.796;2023-11-19T10:38:40;99948.44;;;11.94;68.11
10668;BME280;5382;42.136;24.796;2023-11-19T10:41:07;99968.47;;;11.98;65.52
10668;BME280;5382;42.136;24.796;2023-11-19T10:43:43;99937.72;;;11.95;63.18
10668;BME280;5382;42.136;24.796;2023-11-19T10:46:12;99920.41;;;11.78;62.77
10668;BME280;5382;42.136;24.796;2023-11-19T10:48:41;99931.09;;;12.12;62.57
10668;BME280;5382;42.136;24.796;2023-11-19T10:51:08;99934.59;;;12.24;61.08
10668;BME280;5382;42.136;24.796;2023-11-19T10:53:37;99947.44;;;12.85;59.86
10668;BME280;5382;42.136;24.796;2023-11-19T10:56:06;99888.47;;;13.46;58.86
10668;BME280;5382;42.136;24.796;2023-11-19T10:58:37;99926.84;;;13.95;58.18
10668;BME280;5382;42.136;24.796;2023-11-19T11:01:11;99891.75;;;13.80;54.23
10668;BME280;5382;42.136;24.796;2023-11-19T11:03:41;99888.00;;;13.62;53.11
10668;BME280;5382;42.136;24.796;2023-11-19T11:06:11;99895.41;;;13.58;53.55
10668;BME280;5382;42.136;24.796;2023-11-19T11:08:39;99899.94;;;13.14;53.91
10668;BME280;5382;42.136;24.796;2023-11-19T11:11:07;99902.63;;;13.03;53.45
10668;BME280;5382;42.136;24.796;2023-11-19T11:13:37;99870.25;;;13.09;53.60
10668;BME280;5382;42.136;24.796;2023-11-19T11:16:08;99956.38;;;13.92;52.08
10668;BME280;5382;42.136;24.796;2023-11-19T11:18:36;99849.16;;;13.70;52.02
10668;BME280;5382;42.136;24.796;2023-11-19T11:21:08;99765.47;;;13.74;50.51
10668;BME280;5382;42.136;24.796;2023-11-19T11:29:39;99905.53;;;15.26;47.86
10668;BME280;5382;42.136;24.796;2023-11-19T11:32:17;99887.13;;;14.74;48.44
10668;BME280;5382;42.136;24.796;2023-11-19T11:35:14;99885.91;;;15.08;48.58
10668;BME280;5382;42.136;24.796;2023-11-19T11:37:48;99889.19;;;15.87;46.70
10668;BME280;5382;42.136;24.796;2023-11-19T11:40:18;99862.31;;;15.32;46.77
10668;BME280;5382;42.136;24.796;2023-11-19T11:42:45;99870.28;;;15.81;45.89
10668;BME280;5382;42.136;24.796;2023-11-19T11:45:14;99871.13;;;15.72;46.39
10668;BME280;5382;42.136;24.796;2023-11-19T11:50:57;99866.22;;;16.14;44.96
10668;BME280;5382;42.136;24.796;2023-11-19T11:53:26;99856.91;;;15.90;44.84
10668;BME280;5382;42.136;24.796;2023-11-19T11:55:57;99834.81;;;16.26;44.25
10668;BME280;5382;42.136;24.796;2023-11-19T11:58:31;99830.91;;;16.48;44.17
10668;BME280;5382;42.136;24.796;2023-11-19T12:01:00;99829.59;;;16.79;43.47
10668;BME280;5382;42.136;24.796;2023-11-19T12:03:28;99863.84;;;17.12;42.02
10668;BME280;5382;42.136;24.796;2023-11-19T12:05:55;99839.06;;;16.46;43.15
10668;BME280;5382;42.136;24.796;2023-11-19T12:08:27;99837.38;;;17.27;41.92
10668;BME280;5382;42.136;24.796;2023-11-19T12:10:56;99829.53;;;17.07;41.76
10668;BME280;5382;42.136;24.796;2023-11-19T12:13:27;99833.66;;;16.56;42.57
10668;BME280;5382;42.136;24.796;2023-11-19T12:16:08;99833.97;;;16.81;42.12
10668;BME280;5382;42.136;24.796;2023-11-19T12:18:39;99864.72;;;16.57;42.08
10668;BME280;5382;42.136;24.796;2023-11-19T12:21:06;99827.25;;;16.49;43.02
10668;BME280;5382;42.136;24.796;2023-11-19T12:23:44;99816.03;;;16.45;42.73
10668;BME280;5382;42.136;24.796;2023-11-19T12:26:33;99819.97;;;16.41;42.99
10668;BME280;5382;42.136;24.796;2023-11-19T12:29:00;99805.25;;;16.37;43.30
10668;BME280;5382;42.136;24.796;2023-11-19T12:31:29;99813.31;;;16.55;43.26
10668;BME280;5382;42.136;24.796;2023-11-19T12:33:57;99808.59;;;16.39;43.29
10668;BME280;5382;42.136;24.796;2023-11-19T12:36:24;99788.75;;;16.42;43.53
10668;BME280;5382;42.136;24.796;2023-11-19T12:38:52;99823.41;;;16.06;44.00
10668;BME280;5382;42.136;24.796;2023-11-19T12:41:19;99790.47;;;16.43;43.93
10668;BME280;5382;42.136;24.796;2023-11-19T12:43:49;99777.06;;;16.52;43.87
10668;BME280;5382;42.136;24.796;2023-11-19T12:46:17;99777.81;;;16.45;43.72
10668;BME280;5382;42.136;24.796;2023-11-19T12:48:45;99773.25;;;16.91;43.00
10668;BME280;5382;42.136;24.796;2023-11-19T12:51:12;99797.81;;;16.58;43.27
10668;BME280;5382;42.136;24.796;2023-11-19T12:53:47;99783.56;;;16.22;43.46
10668;BME280;5382;42.136;24.796;2023-11-19T12:56:16;99787.66;;;16.98;42.90
10668;BME280;5382;42.136;24.796;2023-11-19T12:58:43;99777.81;;;15.89;44.06
10668;BME280;5382;42.136;24.796;2023-11-19T13:01:15;99803.09;;;16.23;44.10
10668;BME280;5382;42.136;24.796;2023-11-19T13:03:43;99740.41;;;15.72;44.58
10668;BME280;5382;42.136;24.796;2023-11-19T13:06:12;99807.19;;;16.17;44.03
10668;BME280;5382;42.136;24.796;2023-11-19T13:08:43;99782.50;;;16.33;44.10
10668;BME280;5382;42.136;24.796;2023-11-19T13:11:10;99797.66;;;16.14;44.12
10668;BME280;5382;42.136;24.796;2023-11-19T13:13:59;99785.66;;;16.01;44.68
10668;BME280;5382;42.136;24.796;2023-11-19T13:16:28;99789.41;;;16.53;43.84
10668;BME280;5382;42.136;24.796;2023-11-19T13:18:58;99751.78;;;16.29;43.65
10668;BME280;5382;42.136;24.796;2023-11-19T13:21:25;99724.59;;;16.51;43.50